sensor_id;sensor_type;location;lat;lon;timestamp;P1;durP1;ratioP1;P2;durP2;ratioP2
38220;SDS011;24023;51.280;7.148;2023-06-10T00:00:13;5.9;;;5.1;;
38220;SDS011;24023;51.280;7.148;2023-06-10T00:05:07;5.9;;;5.1;;
38220;SDS011;24023;51.280;7.148;2023-06-10T00:10:08;5.0;;;4.5;;
38220;SDS011;24023;51.280;7.148;2023-06-10T00:15:09;5.9;;;5.3;;
38220;SDS011;24023;51.280;7.148;2023-06-10T00:20:09;5.9;;;5.3;;
38220;SDS011;24023;51.280;7.148;2023-06-10T00:25:07;5.9;;;5.3;;
38220;SDS011;24023;51.280;7.148;2023-06-10T00:30:09;5.9;;;5.3;;
38220;SDS011;24023;51.280;7.148;2023-06-10T00:35:07;5.7;;;5.0;;
38220;SDS011;24023;51.280;7.148;2023-06-10T00:40:09;5.7;;;5.0;;
38220;SDS011;24023;51.280;7.148;2023-06-10T00:45:10;5.6;;;5.0;;
38220;SDS011;24023;51.280;7.148;2023-06-10T00:50:08;5.6;;;5.0;;
38220;SDS011;24023;51.280;7.148;2023-06-10T00:55:08;5.6;;;5.0;;
38220;SDS011;24023;51.280;7.148;2023-06-10T01:00:10;5.8;;;5.2;;
38220;SDS011;24023;51.280;7.148;2023-06-10T01:05:06;5.8;;;5.2;;
38220;SDS011;24023;51.280;7.148;2023-06-10T01:10:09;6.8;;;5.2;;
38220;SDS011;24023;51.280;7.148;2023-06-10T01:15:08;6.8;;;5.2;;
38220;SDS011;24023;51.280;7.148;2023-06-10T01:20:12;5.5;;;5.0;;
38220;SDS011;24023;51.280;7.148;2023-06-10T01:25:07;5.9;;;5.4;;
38220;SDS011;24023;51.280;7.148;2023-06-10T01:30:11;5.9;;;5.4;;
38220;SDS011;24023;51.280;7.148;2023-06-10T01:35:06;5.9;;;5.4;;
38220;SDS011;24023;51.280;7.148;2023-06-10T01:40:07;5.7;;;5.2;;
38220;SDS011;24023;51.280;7.148;2023-06-10T01:45:09;5.7;;;5.2;;
38220;SDS011;24023;51.280;7.148;2023-06-10T01:50:08;5.7;;;5.2;;
38220;SDS011;24023;51.280;7.148;2023-06-10T01:55:07;5.7;;;5.2;;
38220;SDS011;24023;51.280;7.148;2023-06-10T02:00:11;5.7;;;5.2;;
38220;SDS011;24023;51.280;7.148;2023-06-10T02:05:06;6.1;;;5.5;;
38220;SDS011;24023;51.280;7.148;2023-06-10T02:10:08;6.4;;;4.8;;
38220;SDS011;24023;51.280;7.148;2023-06-10T02:15:07;6.4;;;4.8;;
38220;SDS011;24023;51.280;7.148;2023-06-10T02:20:11;6.4;;;4.8;;
38220;SDS011;24023;51.280;7.148;2023-06-10T02:25:06;5.8;;;5.2;;
38220;SDS011;24023;51.280;7.148;2023-06-10T02:30:10;5.8;;;5.2;;
38220;SDS011;24023;51.280;7.148;2023-06-10T02:35:06;5.8;;;5.2;;
38220;SDS011;24023;51.280;7.148;2023-06-10T02:40:09;5.8;;;5.2;;
38220;SDS011;24023;51.280;7.148;2023-06-10T02:45:10;6.6;;;5.4;;
38220;SDS011;24023;51.280;7.148;2023-06-10T02:50:08;7.4;;;5.3;;
38220;SDS011;24023;51.280;7.148;2023-06-10T02:55:07;7.4;;;5.3;;
38220;SDS011;24023;51.280;7.148;2023-06-10T03:00:11;6.0;;;5.2;;
38220;SDS011;24023;51.280;7.148;2023-06-10T03:05:10;6.0;;;5.2;;
38220;SDS011;24023;51.280;7.148;2023-06-10T03:10:08;6.2;;;5.6;;
38220;SDS011;24023;51.280;7.148;2023-06-10T03:15:08;6.2;;;5.6;;
38220;SDS011;24023;51.280;7.148;2023-06-10T03:20:10;5.8;;;5.3;;
38220;SDS011;24023;51.280;7.148;2023-06-10T03:25:06;5.8;;;5.3;;
38220;SDS011;24023;51.280;7.148;2023-06-10T03:30:09;6.0;;;5.2;;
38220;SDS011;24023;51.280;7.148;2023-06-10T03:35:07;6.0;;;5.2;;
38220;SDS011;24023;51.280;7.148;2023-06-10T03:40:08;7.1;;;5.2;;
38220;SDS011;24023;51.280;7.148;2023-06-10T03:45:09;7.1;;;5.2;;
38220;SDS011;24023;51.280;7.148;2023-06-10T03:50:08;5.8;;;5.1;;
38220;SDS011;24023;51.280;7.148;2023-06-10T03:55:06;5.8;;;5.1;;
38220;SDS011;24023;51.280;7.148;2023-06-10T04:00:13;5.8;;;5.1;;
38220;SDS011;24023;51.280;7.148;2023-06-10T04:05:06;5.8;;;5.1;;
38220;SDS011;24023;51.280;7.148;2023-06-10T04:10:08;6.6;;;5.1;;
38220;SDS011;24023;51.280;7.148;2023-06-10T04:15:08;6.6;;;5.1;;
38220;SDS011;24023;51.280;7.148;2023-06-10T04:20:09;5.3;;;4.8;;
38220;SDS011;24023;51.280;7.148;2023-06-10T04:25:08;5.3;;;4.8;;
38220;SDS011;24023;51.280;7.148;2023-06-10T04:30:10;5.1;;;4.5;;
38220;SDS011;24023;51.280;7.148;2023-06-10T04:35:06;5.1;;;4.5;;
38220;SDS011;24023;51.280;7.148;2023-06-10T04:40:08;6.3;;;4.6;;
38220;SDS011;24023;51.280;7.148;2023-06-10T04:45:10;6.6;;;4.7;;
38220;SDS011;24023;51.280;7.148;2023-06-10T04:50:08;6.6;;;4.7;;
38220;SDS011;24023;51.280;7.148;2023-06-10T04:55:07;6.6;;;4.7;;
38220;SDS011;24023;51.280;7.148;2023-06-10T05:00:11;4.8;;;4.3;;
38220;SDS011;24023;51.280;7.148;2023-06-10T05:05:07;4.8;;;4.3;;
38220;SDS011;24023;51.280;7.148;2023-06-10T05:10:08;5.7;;;4.4;;
38220;SDS011;24023;51.280;7.148;2023-06-10T05:15:08;5.7;;;4.4;;
38220;SDS011;24023;51.280;7.148;2023-06-10T05:20:09;6.7;;;4.6;;
38220;SDS011;24023;51.280;7.148;2023-06-10T05:25:06;6.7;;;4.6;;
38220;SDS011;24023;51.280;7.148;2023-06-10T05:30:10;6.7;;;4.6;;
38220;SDS011;24023;51.280;7.148;2023-06-10T05:35:06;6.7;;;4.6;;
38220;SDS011;24023;51.280;7.148;2023-06-10T05:40:08;5.8;;;4.9;;
38220;SDS011;24023;51.280;7.148;2023-06-10T05:45:09;5.8;;;4.9;;
38220;SDS011;24023;51.280;7.148;2023-06-10T05:50:09;5.8;;;4.9;;
38220;SDS011;24023;51.280;7.148;2023-06-10T05:55:07;7.1;;;5.1;;
38220;SDS011;24023;51.280;7.148;2023-06-10T06:00:11;8.7;;;4.8;;
38220;SDS011;24023;51.280;7.148;2023-06-10T06:05:06;8.7;;;4.8;;
38220;SDS011;24023;51.280;7.148;2023-06-10T06:10:07;6.0;;;4.9;;
38220;SDS011;24023;51.280;7.148;2023-06-10T06:15:09;6.0;;;4.9;;
38220;SDS011;24023;51.280;7.148;2023-06-10T06:20:08;6.0;;;4.9;;
38220;SDS011;24023;51.280;7.148;2023-06-10T06:25:07;5.9;;;4.6;;
38220;SDS011;24023;51.280;7.148;2023-06-10T06:30:09;5.9;;;4.6;;
38220;SDS011;24023;51.280;7.148;2023-06-10T06:35:08;6.0;;;4.6;;
38220;SDS011;24023;51.280;7.148;2023-06-10T06:40:08;6.0;;;4.6;;
38220;SDS011;24023;51.280;7.148;2023-06-10T06:45:11;5.1;;;4.6;;
38220;SDS011;24023;51.280;7.148;2023-06-10T06:50:08;6.0;;;4.3;;
38220;SDS011;24023;51.280;7.148;2023-06-10T06:55:07;6.0;;;4.3;;
38220;SDS011;24023;51.280;7.148;2023-06-10T07:00:11;4.7;;;4.3;;
38220;SDS011;24023;51.280;7.148;2023-06-10T07:05:06;4.7;;;4.3;;
38220;SDS011;24023;51.280;7.148;2023-06-10T07:10:08;6.5;;;4.6;;
38220;SDS011;24023;51.280;7.148;2023-06-10T07:15:07;6.5;;;4.6;;
38220;SDS011;24023;51.280;7.148;2023-06-10T07:20:08;5.9;;;4.8;;
38220;SDS011;24023;51.280;7.148;2023-06-10T07:25:06;5.9;;;4.8;;
38220;SDS011;24023;51.280;7.148;2023-06-10T07:30:09;5.0;;;4.5;;
38220;SDS011;24023;51.280;7.148;2023-06-10T07:35:08;5.0;;;4.5;;
38220;SDS011;24023;51.280;7.148;2023-06-10T07:40:08;4.5;;;4.0;;
38220;SDS011;24023;51.280;7.148;2023-06-10T07:45:09;4.5;;;4.0;;
38220;SDS011;24023;51.280;7.148;2023-06-10T07:50:08;5.3;;;4.7;;
38220;SDS011;24023;51.280;7.148;2023-06-10T07:55:07;5.3;;;4.7;;
38220;SDS011;24023;51.280;7.148;2023-06-10T08:00:11;5.9;;;4.6;;
38220;SDS011;24023;51.280;7.148;2023-06-10T08:05:07;5.9;;;4.6;;
38220;SDS011;24023;51.280;7.148;2023-06-10T08:10:08;6.6;;;5.1;;
38220;SDS011;24023;51.280;7.148;2023-06-10T08:15:08;6.6;;;5.1;;
38220;SDS011;24023;51.280;7.148;2023-06-10T08:20:08;5.1;;;4.6;;
38220;SDS011;24023;51.280;7.148;2023-06-10T08:25:07;5.1;;;4.6;;
38220;SDS011;24023;51.280;7.148;2023-06-10T08:30:11;5.8;;;5.0;;
38220;SDS011;24023;51.280;7.148;2023-06-10T08:35:07;5.8;;;5.0;;
38220;SDS011;24023;51.280;7.148;2023-06-10T08:40:08;6.6;;;4.9;;
38220;SDS011;24023;51.280;7.148;2023-06-10T08:45:11;6.6;;;4.9;;
38220;SDS011;24023;51.280;7.148;2023-06-10T08:50:08;6.2;;;4.9;;
38220;SDS011;24023;51.280;7.148;2023-06-10T08:55:09;6.2;;;4.9;;
38220;SDS011;24023;51.280;7.148;2023-06-10T09:00:11;6.0;;;4.8;;
38220;SDS011;24023;51.280;7.148;2023-06-10T09:05:07;6.0;;;4.8;;
38220;SDS011;24023;51.280;7.148;2023-06-10T09:10:08;5.7;;;4.8;;
38220;SDS011;24023;51.280;7.148;2023-06-10T09:15:08;5.7;;;4.8;;
38220;SDS011;24023;51.280;7.148;2023-06-10T09:20:08;5.7;;;4.9;;
38220;SDS011;24023;51.280;7.148;2023-06-10T09:25:08;5.7;;;4.9;;
38220;SDS011;24023;51.280;7.148;2023-06-10T09:30:09;6.4;;;5.1;;
38220;SDS011;24023;51.280;7.148;2023-06-10T09:35:08;6.4;;;5.1;;
38220;SDS011;24023;51.280;7.148;2023-06-10T09:40:09;5.1;;;4.6;;
38220;SDS011;24023;51.280;7.148;2023-06-10T09:45:09;5.1;;;4.6;;
38220;SDS011;24023;51.280;7.148;2023-06-10T09:50:08;5.2;;;4.6;;
38220;SDS011;24023;51.280;7.148;2023-06-10T09:55:08;5.2;;;4.6;;
38220;SDS011;24023;51.280;7.148;2023-06-10T10:00:13;6.6;;;4.7;;
38220;SDS011;24023;51.280;7.148;2023-06-10T10:05:07;6.6;;;4.7;;
38220;SDS011;24023;51.280;7.148;2023-06-10T10:10:09;5.5;;;4.4;;
38220;SDS011;24023;51.280;7.148;2023-06-10T10:15:08;5.5;;;4.4;;
38220;SDS011;24023;51.280;7.148;2023-06-10T10:20:08;5.2;;;4.6;;
38220;SDS011;24023;51.280;7.148;2023-06-10T10:25:09;5.2;;;4.6;;
38220;SDS011;24023;51.280;7.148;2023-06-10T10:30:11;6.6;;;4.6;;
38220;SDS011;24023;51.280;7.148;2023-06-10T10:35:08;6.6;;;4.6;;
38220;SDS011;24023;51.280;7.148;2023-06-10T10:40:07;7.2;;;4.7;;
38220;SDS011;24023;51.280;7.148;2023-06-10T10:45:10;7.2;;;4.7;;
38220;SDS011;24023;51.280;7.148;2023-06-10T10:50:12;5.3;;;4.8;;
38220;SDS011;24023;51.280;7.148;2023-06-10T10:55:06;5.3;;;4.8;;
38220;SDS011;24023;51.280;7.148;2023-06-10T11:00:10;5.3;;;4.8;;
38220;SDS011;24023;51.280;7.148;2023-06-10T11:05:06;5.3;;;4.8;;
38220;SDS011;24023;51.280;7.148;2023-06-10T11:10:08;5.8;;;4.5;;
38220;SDS011;24023;51.280;7.148;2023-06-10T11:15:08;5.8;;;4.5;;
38220;SDS011;24023;51.280;7.148;2023-06-10T11:20:08;5.8;;;4.5;;
38220;SDS011;24023;51.280;7.148;2023-06-10T11:25:08;5.5;;;4.5;;
38220;SDS011;24023;51.280;7.148;2023-06-10T11:30:18;5.5;;;4.5;;
38220;SDS011;24023;51.280;7.148;2023-06-10T11:35:07;5.5;;;4.5;;
38220;SDS011;24023;51.280;7.148;2023-06-10T11:40:09;5.5;;;4.9;;
38220;SDS011;24023;51.280;7.148;2023-06-10T11:45:09;5.5;;;4.9;;
38220;SDS011;24023;51.280;7.148;2023-06-10T11:50:09;7.8;;;4.8;;
38220;SDS011;24023;51.280;7.148;2023-06-10T11:55:07;7.8;;;4.8;;
38220;SDS011;24023;51.280;7.148;2023-06-10T12:00:11;6.7;;;5.1;;
38220;SDS011;24023;51.280;7.148;2023-06-10T12:05:10;6.7;;;5.1;;
38220;SDS011;24023;51.280;7.148;2023-06-10T12:10:08;4.8;;;4.4;;
38220;SDS011;24023;51.280;7.148;2023-06-10T12:15:08;4.8;;;4.4;;
38220;SDS011;24023;51.280;7.148;2023-06-10T12:20:12;6.7;;;4.5;;
38220;SDS011;24023;51.280;7.148;2023-06-10T12:25:07;6.7;;;4.5;;
38220;SDS011;24023;51.280;7.148;2023-06-10T12:30:10;6.6;;;4.9;;
38220;SDS011;24023;51.280;7.148;2023-06-10T12:35:06;6.6;;;4.9;;
38220;SDS011;24023;51.280;7.148;2023-06-10T12:40:09;7.5;;;4.9;;
38220;SDS011;24023;51.280;7.148;2023-06-10T12:45:10;7.5;;;4.9;;
38220;SDS011;24023;51.280;7.148;2023-06-10T12:50:08;4.9;;;4.2;;
38220;SDS011;24023;51.280;7.148;2023-06-10T12:55:07;4.9;;;4.2;;
38220;SDS011;24023;51.280;7.148;2023-06-10T13:00:14;7.1;;;4.7;;
38220;SDS011;24023;51.280;7.148;2023-06-10T13:05:07;7.1;;;4.7;;
38220;SDS011;24023;51.280;7.148;2023-06-10T13:10:08;6.1;;;5.0;;
38220;SDS011;24023;51.280;7.148;2023-06-10T13:15:08;6.1;;;5.0;;
38220;SDS011;24023;51.280;7.148;2023-06-10T13:20:07;5.0;;;4.4;;
38220;SDS011;24023;51.280;7.148;2023-06-10T13:25:08;5.0;;;4.4;;
38220;SDS011;24023;51.280;7.148;2023-06-10T13:30:10;6.8;;;4.3;;
38220;SDS011;24023;51.280;7.148;2023-06-10T13:35:07;6.8;;;4.3;;
38220;SDS011;24023;51.280;7.148;2023-06-10T13:40:10;4.4;;;4.0;;
38220;SDS011;24023;51.280;7.148;2023-06-10T13:45:10;4.4;;;4.0;;
38220;SDS011;24023;51.280;7.148;2023-06-10T13:50:08;5.6;;;4.4;;
38220;SDS011;24023;51.280;7.148;2023-06-10T13:55:07;5.6;;;4.4;;
38220;SDS011;24023;51.280;7.148;2023-06-10T14:00:10;5.6;;;4.4;;
38220;SDS011;24023;51.280;7.148;2023-06-10T14:05:06;6.0;;;4.3;;
38220;SDS011;24023;51.280;7.148;2023-06-10T14:10:09;6.0;;;4.3;;
38220;SDS011;24023;51.280;7.148;2023-06-10T14:15:08;6.0;;;4.6;;
38220;SDS011;24023;51.280;7.148;2023-06-10T14:20:09;7.1;;;4.6;;
38220;SDS011;24023;51.280;7.148;2023-06-10T14:25:07;7.1;;;4.6;;
38220;SDS011;24023;51.280;7.148;2023-06-10T14:30:09;5.2;;;4.3;;
38220;SDS011;24023;51.280;7.148;2023-06-10T14:35:07;5.2;;;4.3;;
38220;SDS011;24023;51.280;7.148;2023-06-10T14:40:08;5.2;;;4.3;;
38220;SDS011;24023;51.280;7.148;2023-06-10T14:45:10;6.2;;;4.4;;
38220;SDS011;24023;51.280;7.148;2023-06-10T14:50:08;6.8;;;4.1;;
38220;SDS011;24023;51.280;7.148;2023-06-10T14:55:06;6.8;;;4.1;;
38220;SDS011;24023;51.280;7.148;2023-06-10T15:00:12;6.2;;;4.1;;
38220;SDS011;24023;51.280;7.148;2023-06-10T15:05:06;6.2;;;4.1;;
38220;SDS011;24023;51.280;7.148;2023-06-10T15:10:08;6.2;;;4.1;;
38220;SDS011;24023;51.280;7.148;2023-06-10T15:15:08;5.0;;;4.5;;
38220;SDS011;24023;51.280;7.148;2023-06-10T15:20:08;5.0;;;4.5;;
38220;SDS011;24023;51.280;7.148;2023-06-10T15:25:06;5.3;;;4.4;;
38220;SDS011;24023;51.280;7.148;2023-06-10T15:30:09;5.2;;;4.1;;
38220;SDS011;24023;51.280;7.148;2023-06-10T15:35:06;5.2;;;4.1;;
38220;SDS011;24023;51.280;7.148;2023-06-10T15:40:08;8.4;;;5.8;;
38220;SDS011;24023;51.280;7.148;2023-06-10T15:45:09;8.4;;;5.8;;
38220;SDS011;24023;51.280;7.148;2023-06-10T15:50:07;5.5;;;4.3;;
38220;SDS011;24023;51.280;7.148;2023-06-10T15:55:07;5.5;;;4.3;;
38220;SDS011;24023;51.280;7.148;2023-06-10T16:00:12;5.6;;;3.7;;
38220;SDS011;24023;51.280;7.148;2023-06-10T16:05:06;5.6;;;3.7;;
38220;SDS011;24023;51.280;7.148;2023-06-10T16:10:08;6.2;;;4.1;;
38220;SDS011;24023;51.280;7.148;2023-06-10T16:15:07;6.2;;;4.1;;
38220;SDS011;24023;51.280;7.148;2023-06-10T16:20:08;5.3;;;4.0;;
38220;SDS011;24023;51.280;7.148;2023-06-10T16:25:07;5.3;;;4.0;;
38220;SDS011;24023;51.280;7.148;2023-06-10T16:30:09;8.3;;;3.9;;
38220;SDS011;24023;51.280;7.148;2023-06-10T16:35:07;8.3;;;3.9;;
38220;SDS011;24023;51.280;7.148;2023-06-10T16:40:08;4.9;;;3.7;;
38220;SDS011;24023;51.280;7.148;2023-06-10T16:45:10;4.9;;;3.7;;
38220;SDS011;24023;51.280;7.148;2023-06-10T16:50:07;4.9;;;3.7;;
38220;SDS011;24023;51.280;7.148;2023-06-10T16:55:07;4.9;;;3.9;;
38220;SDS011;24023;51.280;7.148;2023-06-10T17:00:10;4.9;;;3.9;;
38220;SDS011;24023;51.280;7.148;2023-06-10T17:05:06;4.8;;;3.8;;
38220;SDS011;24023;51.280;7.148;2023-06-10T17:10:08;5.5;;;4.0;;
38220;SDS011;24023;51.280;7.148;2023-06-10T17:15:08;5.5;;;4.0;;
38220;SDS011;24023;51.280;7.148;2023-06-10T17:20:08;5.5;;;4.0;;
38220;SDS011;24023;51.280;7.148;2023-06-10T17:25:06;5.5;;;4.0;;
38220;SDS011;24023;51.280;7.148;2023-06-10T17:30:11;7.1;;;4.1;;
38220;SDS011;24023;51.280;7.148;2023-06-10T17:35:07;7.1;;;4.1;;
38220;SDS011;24023;51.280;7.148;2023-06-10T17:40:08;5.5;;;4.1;;
38220;SDS011;24023;51.280;7.148;2023-06-10T17:45:09;5.5;;;4.1;;
38220;SDS011;24023;51.280;7.148;2023-06-10T17:50:08;5.5;;;4.1;;
38220;SDS011;24023;51.280;7.148;2023-06-10T17:55:06;4.4;;;3.9;;
38220;SDS011;24023;51.280;7.148;2023-06-10T18:00:11;6.5;;;4.5;;
38220;SDS011;24023;51.280;7.148;2023-06-10T18:05:06;6.5;;;4.5;;
38220;SDS011;24023;51.280;7.148;2023-06-10T18:10:08;6.4;;;4.2;;
38220;SDS011;24023;51.280;7.148;2023-06-10T18:15:07;6.4;;;4.2;;
38220;SDS011;24023;51.280;7.148;2023-06-10T18:20:08;4.3;;;3.9;;
38220;SDS011;24023;51.280;7.148;2023-06-10T18:25:06;4.3;;;3.9;;
38220;SDS011;24023;51.280;7.148;2023-06-10T18:30:09;6.1;;;4.2;;
38220;SDS011;24023;51.280;7.148;2023-06-10T18:35:07;6.1;;;4.2;;
38220;SDS011;24023;51.280;7.148;2023-06-10T18:40:07;6.2;;;4.6;;
38220;SDS011;24023;51.280;7.148;2023-06-10T18:45:11;6.2;;;4.6;;
38220;SDS011;24023;51.280;7.148;2023-06-10T18:50:08;6.2;;;4.6;;
38220;SDS011;24023;51.280;7.148;2023-06-10T18:55:07;5.5;;;4.9;;
38220;SDS011;24023;51.280;7.148;2023-06-10T19:00:12;5.5;;;4.9;;
38220;SDS011;24023;51.280;7.148;2023-06-10T19:05:08;5.6;;;4.4;;
38220;SDS011;24023;51.280;7.148;2023-06-10T19:10:08;5.6;;;4.4;;
38220;SDS011;24023;51.280;7.148;2023-06-10T19:15:08;7.1;;;5.1;;
38220;SDS011;24023;51.280;7.148;2023-06-10T19:20:08;7.1;;;5.1;;
38220;SDS011;24023;51.280;7.148;2023-06-10T19:25:06;7.1;;;5.1;;
38220;SDS011;24023;51.280;7.148;2023-06-10T19:30:09;5.8;;;4.9;;
38220;SDS011;24023;51.280;7.148;2023-06-10T19:35:06;5.8;;;4.9;;
38220;SDS011;24023;51.280;7.148;2023-06-10T19:40:08;5.1;;;4.6;;
38220;SDS011;24023;51.280;7.148;2023-06-10T19:45:09;5.1;;;4.6;;
38220;SDS011;24023;51.280;7.148;2023-06-10T19:50:08;5.1;;;4.6;;
38220;SDS011;24023;51.280;7.148;2023-06-10T19:55:06;5.3;;;4.7;;
38220;SDS011;24023;51.280;7.148;2023-06-10T20:00:11;5.3;;;4.7;;
38220;SDS011;24023;51.280;7.148;2023-06-10T20:05:07;6.8;;;4.6;;
38220;SDS011;24023;51.280;7.148;2023-06-10T20:10:08;6.8;;;4.6;;
38220;SDS011;24023;51.280;7.148;2023-06-10T20:15:07;6.8;;;4.6;;
38220;SDS011;24023;51.280;7.148;2023-06-10T20:20:08;7.0;;;4.6;;
38220;SDS011;24023;51.280;7.148;2023-06-10T20:25:07;7.0;;;4.6;;
38220;SDS011;24023;51.280;7.148;2023-06-10T20:30:10;5.4;;;4.9;;
38220;SDS011;24023;51.280;7.148;2023-06-10T20:35:06;5.4;;;4.9;;
38220;SDS011;24023;51.280;7.148;2023-06-10T20:40:08;5.9;;;4.7;;
38220;SDS011;24023;51.280;7.148;2023-06-10T20:45:10;5.9;;;4.7;;
38220;SDS011;24023;51.280;7.148;2023-06-10T20:50:08;5.9;;;4.7;;
38220;SDS011;24023;51.280;7.148;2023-06-10T20:55:06;6.5;;;4.8;;
38220;SDS011;24023;51.280;7.148;2023-06-10T21:00:11;6.5;;;4.8;;
38220;SDS011;24023;51.280;7.148;2023-06-10T21:05:06;6.3;;;4.9;;
38220;SDS011;24023;51.280;7.148;2023-06-10T21:10:08;6.3;;;4.9;;
38220;SDS011;24023;51.280;7.148;2023-06-10T21:15:07;6.3;;;4.9;;
38220;SDS011;24023;51.280;7.148;2023-06-10T21:20:08;5.4;;;4.8;;
38220;SDS011;24023;51.280;7.148;2023-06-10T21:25:07;5.4;;;4.8;;
38220;SDS011;24023;51.280;7.148;2023-06-10T21:30:09;5.2;;;4.6;;
38220;SDS011;24023;51.280;7.148;2023-06-10T21:35:07;5.2;;;4.6;;
38220;SDS011;24023;51.280;7.148;2023-06-10T21:40:08;6.6;;;4.7;;
38220;SDS011;24023;51.280;7.148;2023-06-10T21:45:09;6.6;;;4.7;;
38220;SDS011;24023;51.280;7.148;2023-06-10T21:50:08;6.6;;;4.7;;
38220;SDS011;24023;51.280;7.148;2023-06-10T21:55:06;6.4;;;5.2;;
38220;SDS011;24023;51.280;7.148;2023-06-10T22:00:20;5.3;;;4.8;;
38220;SDS011;24023;51.280;7.148;2023-06-10T22:05:08;5.3;;;4.8;;
38220;SDS011;24023;51.280;7.148;2023-06-10T22:10:08;5.3;;;4.8;;
38220;SDS011;24023;51.280;7.148;2023-06-10T22:15:08;5.3;;;4.8;;
38220;SDS011;24023;51.280;7.148;2023-06-10T22:20:08;5.7;;;5.1;;
38220;SDS011;24023;51.280;7.148;2023-06-10T22:25:06;5.7;;;5.1;;
38220;SDS011;24023;51.280;7.148;2023-06-10T22:30:09;5.7;;;5.1;;
38220;SDS011;24023;51.280;7.148;2023-06-10T22:35:07;5.4;;;4.7;;
38220;SDS011;24023;51.280;7.148;2023-06-10T22:40:08;5.4;;;4.7;;
38220;SDS011;24023;51.280;7.148;2023-06-10T22:45:11;5.8;;;5.1;;
38220;SDS011;24023;51.280;7.148;2023-06-10T22:50:08;5.8;;;5.1;;
38220;SDS011;24023;51.280;7.148;2023-06-10T22:55:06;6.7;;;5.1;;
38220;SDS011;24023;51.280;7.148;2023-06-10T23:00:12;6.1;;;4.9;;
38220;SDS011;24023;51.280;7.148;2023-06-10T23:05:07;6.1;;;4.9;;
38220;SDS011;24023;51.280;7.148;2023-06-10T23:10:08;5.5;;;4.9;;
38220;SDS011;24023;51.280;7.148;2023-06-10T23:15:08;5.5;;;4.9;;
38220;SDS011;24023;51.280;7.148;2023-06-10T23:20:09;5.5;;;4.9;;
38220;SDS011;24023;51.280;7.148;2023-06-10T23:25:06;5.4;;;4.9;;
38220;SDS011;24023;51.280;7.148;2023-06-10T23:30:09;5.4;;;4.9;;
38220;SDS011;24023;51.280;7.148;2023-06-10T23:35:07;6.0;;;5.0;;
38220;SDS011;24023;51.280;7.148;2023-06-10T23:40:09;6.0;;;5.0;;
38220;SDS011;24023;51.280;7.148;2023-06-10T23:45:10;6.0;;;5.0;;
38220;SDS011;24023;51.280;7.148;2023-06-10T23:50:07;6.3;;;4.7;;
38220;SDS011;24023;51.280;7.148;2023-06-10T23:55:06;6.3;;;4.7;;
